Time;durP1;ratioP1;P1;durP2;ratioP2;P2;SDS_P1;SDS_P2;PMS_P1;PMS_P2;Temp;Humidity;BMP_temperature;BMP_pressure;BME280_temperature;BME280_humidity;BME280_pressure;Samples;Min_cycle;Max_cycle;Signal;HPM_P1;HPM_P2
2022/10/04 00:01:04;;;;;;;;;;;;;;;13.12;69.75;95494.28;5097164;28;966;-62
2022/10/04 00:03:36;;;;;;;;;;;;;;;13.08;70.12;95501.84;5096727;28;1040;-63
2022/10/04 00:06:04;;;;;;;;;;;;;;;13.28;69.47;95499.66;5100318;28;1307;-63
2022/10/04 00:08:57;;;;;;;;;;;;;;;13.36;69.25;95498.84;5116882;28;1102;-63
2022/10/04 00:11:22;;;;;;;;;;;;;;;13.38;68.87;95505.72;5115821;28;1247;-62
2022/10/04 00:13:51;;;;;;;;;;;;;;;13.41;68.69;95502.69;5117065;28;973;-62
2022/10/04 00:16:22;;;;;;;;;;;;;;;13.40;68.90;95508.25;5117083;28;1027;-62
2022/10/04 00:18:59;;;;;;;;;;;;;;;13.39;69.06;95501.19;5115503;28;1905;-62
2022/10/04 00:21:44;;;;;;;;;;;;;;;13.39;69.15;95493.97;5116864;28;1092;-63
2022/10/04 00:24:19;;;;;;;;;;;;;;;13.34;69.61;95493.63;5116682;28;1086;-63
2022/10/04 00:26:48;;;;;;;;;;;;;;;13.35;69.28;95500.66;5116776;28;1031;-62
2022/10/04 00:29:34;;;;;;;;;;;;;;;13.16;70.49;95491.09;5116644;28;1045;-62
2022/10/04 00:32:09;;;;;;;;;;;;;;;13.23;70.46;95493.94;5116933;28;1008;-63
2022/10/04 00:34:35;;;;;;;;;;;;;;;13.25;68.80;95497.31;5116635;28;1049;-62
2022/10/04 00:37:01;;;;;;;;;;;;;;;13.27;68.93;95485.38;5115493;28;957;-63
2022/10/04 00:39:30;;;;;;;;;;;;;;;13.23;69.31;95486.72;5115338;28;1988;-63
2022/10/04 00:41:56;;;;;;;;;;;;;;;13.23;69.30;95484.03;5116408;27;960;-63
2022/10/04 00:44:22;;;;;;;;;;;;;;;13.31;69.25;95483.22;5116391;28;1103;-63
2022/10/04 00:46:50;;;;;;;;;;;;;;;13.29;69.17;95486.03;5115187;28;1040;-62
2022/10/04 00:49:19;;;;;;;;;;;;;;;13.33;68.87;95478.53;5116280;28;1100;-63
2022/10/04 00:51:49;;;;;;;;;;;;;;;13.31;69.22;95480.53;5116233;28;981;-63
2022/10/04 00:54:19;;;;;;;;;;;;;;;13.10;70.11;95475.66;5116133;28;1049;-63
2022/10/04 00:56:53;;;;;;;;;;;;;;;13.18;70.05;95481.00;5116006;28;1084;-63
2022/10/04 00:59:26;;;;;;;;;;;;;;;13.29;69.97;95474.47;5115967;28;1989;-63
2022/10/04 01:01:55;;;;;;;;;;;;;;;13.37;69.49;95473.66;5116079;28;1049;-63
2022/10/04 01:04:36;;;;;;;;;;;;;;;13.37;69.61;95481.72;5114797;28;1072;-62
2022/10/04 01:07:03;;;;;;;;;;;;;;;13.23;70.04;95477.84;5103713;27;1319;-62
2022/10/04 01:09:35;;;;;;;;;;;;;;;13.05;71.44;95478.88;5094910;28;1088;-63
2022/10/04 01:12:05;;;;;;;;;;;;;;;13.14;70.62;95476.16;5095676;28;957;-62
2022/10/04 01:14:38;;;;;;;;;;;;;;;13.08;70.75;95488.41;5095429;28;1029;-63
2022/10/04 01:17:04;;;;;;;;;;;;;;;13.23;70.06;95480.53;5095481;28;973;-63
2022/10/04 01:19:30;;;;;;;;;;;;;;;13.18;69.96;95481.00;5095203;28;1972;-62
2022/10/04 01:22:06;;;;;;;;;;;;;;;13.22;70.18;95481.53;5094005;28;1041;-62
2022/10/04 01:24:33;;;;;;;;;;;;;;;13.21;70.60;95483.38;5095409;28;1061;-62
2022/10/04 01:26:59;;;;;;;;;;;;;;;13.03;71.03;95470.16;5095254;28;944;-62
2022/10/04 01:29:27;;;;;;;;;;;;;;;13.01;70.60;95476.66;5095179;28;1016;-63
2022/10/04 01:31:58;;;;;;;;;;;;;;;12.99;70.85;95474.16;5093698;28;1103;-62
2022/10/04 01:34:25;;;;;;;;;;;;;;;12.86;71.25;95476.50;5095237;28;1024;-63
2022/10/04 01:36:53;;;;;;;;;;;;;;;12.88;71.34;95475.34;5093908;28;965;-62
2022/10/04 01:39:21;;;;;;;;;;;;;;;12.92;71.26;95464.25;5095009;28;1987;-62
2022/10/04 01:41:53;;;;;;;;;;;;;;;12.89;70.77;95468.13;5094798;28;1042;-63
2022/10/04 01:44:40;;;;;;;;;;;;;;;12.93;70.58;95466.78;5094913;28;1055;-63
2022/10/04 01:47:30;;;;;;;;;;;;;;;12.91;70.11;95459.91;5095003;28;940;-63
2022/10/04 01:50:01;;;;;;;;;;;;;;;12.91;69.82;95458.06;5094820;28;1024;-62
2022/10/04 01:52:33;;;;;;;;;;;;;;;12.79;70.69;95465.59;5094782;28;953;-62
2022/10/04 01:55:08;;;;;;;;;;;;;;;12.71;70.60;95457.56;5094502;28;981;-62
2022/10/04 01:57:37;;;;;;;;;;;;;;;12.70;69.48;95456.72;5094822;28;1013;-63
2022/10/04 02:00:08;;;;;;;;;;;;;;;12.62;71.09;95458.56;5093430;28;1902;-63
2022/10/04 02:02:44;;;;;;;;;;;;;;;12.61;70.38;95457.69;5094652;28;1060;-63
2022/10/04 02:05:12;;;;;;;;;;;;;;;12.67;69.96;95462.41;5093520;28;1527;-64
2022/10/04 02:07:40;;;;;;;;;;;;;;;12.64;69.62;95464.59;5111087;28;1335;-64
2022/10/04 02:10:09;;;;;;;;;;;;;;;12.61;70.13;95463.06;5114748;28;1044;-64
2022/10/04 02:12:37;;;;;;;;;;;;;;;12.52;70.36;95460.53;5113599;28;1047;-64
2022/10/04 02:15:06;;;;;;;;;;;;;;;12.35;70.90;95463.22;5114840;28;1059;-64
2022/10/04 02:17:36;;;;;;;;;;;;;;;12.35;69.78;95457.00;5114549;28;1029;-64
2022/10/04 02:20:08;;;;;;;;;;;;;;;12.19;70.59;95463.16;5095941;28;1995;-63
2022/10/04 02:22:35;;;;;;;;;;;;;;;12.22;69.79;95462.84;5114435;28;1061;-64
2022/10/04 02:25:02;;;;;;;;;;;;;;;12.28;68.59;95463.00;5114429;28;1046;-64
2022/10/04 02:27:29;;;;;;;;;;;;;;;12.29;67.78;95469.22;5113219;28;1049;-64
2022/10/04 02:30:03;;;;;;;;;;;;;;;12.24;67.76;95472.41;5114317;28;1041;-64
2022/10/04 02:35:17;;;;;;;;;;;;;;;12.08;69.03;95472.34;5114285;28;1102;-64
2022/10/04 02:37:46;;;;;;;;;;;;;;;11.89;70.17;95476.97;5096417;28;1448;-64
2022/10/04 02:40:16;;;;;;;;;;;;;;;11.81;69.96;95476.06;5112956;28;1906;-64
2022/10/04 02:42:59;;;;;;;;;;;;;;;11.72;69.90;95480.53;5113107;28;1536;-63
2022/10/04 02:45:32;;;;;;;;;;;;;;;11.75;69.76;95476.72;5114160;28;1111;-64
2022/10/04 02:48:06;;;;;;;;;;;;;;;11.68;70.45;95481.84;5114016;28;1051;-64
2022/10/04 02:50:35;;;;;;;;;;;;;;;11.71;69.43;95478.88;5114259;28;1506;-64
2022/10/04 02:53:15;;;;;;;;;;;;;;;11.62;70.03;95487.84;5112951;28;992;-63
2022/10/04 02:55:41;;;;;;;;;;;;;;;11.65;69.74;95495.59;5113854;28;1057;-64
2022/10/04 02:58:10;;;;;;;;;;;;;;;11.75;67.95;95495.47;5113920;28;1057;-64
2022/10/04 03:00:45;;;;;;;;;;;;;;;11.61;69.43;95486.16;5112508;28;1921;-64
2022/10/04 03:03:20;;;;;;;;;;;;;;;11.67;69.44;95497.09;5112770;28;1017;-64
2022/10/04 03:05:54;;;;;;;;;;;;;;;11.62;68.10;95498.56;5111207;28;1541;-64
2022/10/04 03:08:21;;;;;;;;;;;;;;;11.59;67.82;95497.06;5092136;28;1197;-63
2022/10/04 03:10:49;;;;;;;;;;;;;;;11.57;68.20;95492.84;5092141;28;1029;-63
2022/10/04 03:13:18;;;;;;;;;;;;;;;11.46;68.14;95507.34;5093581;28;1036;-64
2022/10/04 03:15:46;;;;;;;;;;;;;;;11.43;68.65;95497.78;5093311;28;1041;-63
2022/10/04 03:18:13;;;;;;;;;;;;;;;11.51;68.21;95491.63;5093424;28;977;-64
2022/10/04 03:20:40;;;;;;;;;;;;;;;11.49;68.57;95488.28;5093170;28;1979;-63
2022/10/04 03:23:07;;;;;;;;;;;;;;;11.36;68.49;95486.00;5092074;28;1034;-64
2022/10/04 03:25:48;;;;;;;;;;;;;;;11.22;67.65;95497.31;5093231;28;1037;-63
2022/10/04 03:28:15;;;;;;;;;;;;;;;11.23;67.86;95497.16;5093367;28;997;-64
2022/10/04 03:30:43;;;;;;;;;;;;;;;11.37;66.74;95511.81;5093286;28;973;-64
2022/10/04 03:33:14;;;;;;;;;;;;;;;11.43;67.37;95516.53;5097340;28;1307;-64
2022/10/04 03:35:40;;;;;;;;;;;;;;;11.45;67.78;95519.06;5096333;28;1007;-63
2022/10/04 03:38:08;;;;;;;;;;;;;;;11.40;67.45;95522.22;5097458;28;1011;-64
2022/10/04 03:40:36;;;;;;;;;;;;;;;11.41;67.84;95515.84;5097253;28;1973;-63
2022/10/04 03:43:03;;;;;;;;;;;;;;;11.32;68.07;95511.44;5097134;28;1124;-63
2022/10/04 03:45:32;;;;;;;;;;;;;;;11.23;68.29;95515.91;5095935;28;1045;-63
2022/10/04 03:48:03;;;;;;;;;;;;;;;11.14;68.09;95515.00;5096882;28;1061;-63
2022/10/04 03:50:33;;;;;;;;;;;;;;;11.13;67.77;95515.13;5096133;28;1004;-64
2022/10/04 03:53:03;;;;;;;;;;;;;;;11.04;67.56;95527.63;5097058;28;1020;-63
2022/10/04 03:55:33;;;;;;;;;;;;;;;11.11;67.30;95528.66;5096978;28;1069;-63
2022/10/04 03:58:00;;;;;;;;;;;;;;;11.07;68.27;95527.31;5096854;28;972;-64
2022/10/04 04:00:27;;;;;;;;;;;;;;;11.22;67.32;95535.63;5096715;28;2028;-63
2022/10/04 04:03:03;;;;;;;;;;;;;;;11.18;68.04;95525.41;5096709;28;1146;-63
2022/10/04 04:05:36;;;;;;;;;;;;;;;11.16;68.26;95527.38;5095751;28;1054;-64
2022/10/04 04:08:11;;;;;;;;;;;;;;;11.13;68.81;95528.53;5096708;28;1249;-64
2022/10/04 04:10:41;;;;;;;;;;;;;;;11.03;67.19;95531.28;5096656;28;960;-64
2022/10/04 04:13:09;;;;;;;;;;;;;;;11.03;68.13;95531.28;5096569;28;1209;-64
2022/10/04 04:15:36;;;;;;;;;;;;;;;11.05;68.16;95529.28;5096485;28;1084;-64
2022/10/04 04:18:04;;;;;;;;;;;;;;;11.10;66.78;95534.19;5095341;28;1017;-63
2022/10/04 04:20:32;;;;;;;;;;;;;;;11.03;67.77;95539.31;5096302;28;1977;-63
2022/10/04 04:23:24;;;;;;;;;;;;;;;10.94;69.00;95522.34;5096414;28;968;-63
2022/10/04 04:25:53;;;;;;;;;;;;;;;10.83;69.15;95524.41;5095112;28;1259;-63
2022/10/04 04:28:19;;;;;;;;;;;;;;;10.80;68.70;95530.09;5095152;28;1104;-63
2022/10/04 04:30:47;;;;;;;;;;;;;;;10.78;68.51;95524.06;5096164;28;1116;-63
2022/10/04 04:33:20;;;;;;;;;;;;;;;10.87;68.05;95529.31;5095154;28;989;-63
2022/10/04 04:35:47;;;;;;;;;;;;;;;10.86;68.17;95534.81;5096158;28;1197;-63
2022/10/04 04:38:16;;;;;;;;;;;;;;;10.90;67.40;95530.84;5096116;28;1124;-63
2022/10/04 04:40:42;;;;;;;;;;;;;;;10.84;68.82;95534.97;5095971;28;1983;-63
2022/10/04 04:43:12;;;;;;;;;;;;;;;10.91;67.78;95543.25;5094367;28;1574;-63
2022/10/04 04:45:38;;;;;;;;;;;;;;;10.94;67.95;95543.75;5096160;28;1015;-63
2022/10/04 04:48:05;;;;;;;;;;;;;;;10.83;68.51;95535.97;5095004;28;1488;-62
2022/10/04 04:50:34;;;;;;;;;;;;;;;10.89;67.69;95537.19;5095834;28;1037;-63
2022/10/04 04:53:03;;;;;;;;;;;;;;;10.84;67.64;95550.19;5095841;28;1049;-63
2022/10/04 04:55:36;;;;;;;;;;;;;;;10.83;68.35;95560.06;5094598;28;1151;-63
2022/10/04 04:58:03;;;;;;;;;;;;;;;10.89;68.40;95564.78;5096230;28;1043;-63
2022/10/04 05:00:31;;;;;;;;;;;;;;;10.91;68.29;95559.28;5094424;28;1910;-63
2022/10/04 05:02:59;;;;;;;;;;;;;;;10.88;68.57;95563.09;5095670;28;1000;-62
2022/10/04 05:05:27;;;;;;;;;;;;;;;10.89;68.36;95555.94;5095607;28;1009;-63
2022/10/04 05:08:22;;;;;;;;;;;;;;;10.97;68.34;95561.34;5114668;28;1228;-63
2022/10/04 05:10:54;;;;;;;;;;;;;;;10.91;68.72;95560.13;5110952;28;1324;-62
2022/10/04 05:13:21;;;;;;;;;;;;;;;10.93;67.03;95560.81;5114698;28;1033;-62
2022/10/04 05:15:50;;;;;;;;;;;;;;;10.93;66.65;95557.28;5115662;28;1032;-62
2022/10/04 05:18:27;;;;;;;;;;;;;;;10.82;68.27;95574.41;5115707;28;1127;-64
2022/10/04 05:20:54;;;;;;;;;;;;;;;10.72;67.98;95566.47;5114586;28;1063;-64
2022/10/04 05:23:21;;;;;;;;;;;;;;;10.78;68.34;95573.03;5114462;28;1107;-62
2022/10/04 05:25:48;;;;;;;;;;;;;;;10.85;68.30;95565.22;5115635;28;1020;-62
2022/10/04 05:28:16;;;;;;;;;;;;;;;10.94;67.77;95572.34;5115536;28;1008;-62
2022/10/04 05:30:49;;;;;;;;;;;;;;;10.97;68.52;95574.72;5115406;28;1108;-62
2022/10/04 05:33:25;;;;;;;;;;;;;;;10.98;69.17;95581.75;5115885;28;1031;-62
2022/10/04 05:36:09;;;;;;;;;;;;;;;10.97;69.25;95581.91;5115291;28;1091;-62
2022/10/04 05:38:42;;;;;;;;;;;;;;;11.01;69.60;95589.47;5115221;28;1905;-62
2022/10/04 05:41:16;;;;;;;;;;;;;;;11.17;68.61;95598.63;5115570;28;1000;-62
2022/10/04 05:43:47;;;;;;;;;;;;;;;11.37;68.63;95591.28;5115178;28;1029;-62
2022/10/04 05:46:16;;;;;;;;;;;;;;;11.27;69.27;95602.09;5115164;28;1021;-62
2022/10/04 05:48:43;;;;;;;;;;;;;;;11.30;69.44;95607.13;5114108;28;1880;-62
2022/10/04 05:51:29;;;;;;;;;;;;;;;11.47;69.07;95602.75;5115675;28;976;-62
2022/10/04 05:54:02;;;;;;;;;;;;;;;11.79;67.75;95606.66;5114961;28;1040;-62
2022/10/04 05:56:39;;;;;;;;;;;;;;;11.94;68.10;95613.16;5115204;28;1008;-62
2022/10/04 05:59:28;;;;;;;;;;;;;;;12.01;67.88;95622.22;5114913;28;1983;-62
2022/10/04 06:02:01;;;;;;;;;;;;;;;11.98;68.62;95613.66;5111674;28;1088;-63
2022/10/04 06:04:33;;;;;;;;;;;;;;;11.97;68.29;95622.69;5113713;28;1016;-63
2022/10/04 06:07:11;;;;;;;;;;;;;;;11.73;69.47;95616.16;5114631;28;1314;-63
2022/10/04 06:09:37;;;;;;;;;;;;;;;11.75;69.61;95616.00;5114555;28;1150;-62
2022/10/04 06:12:09;;;;;;;;;;;;;;;11.73;70.04;95619.66;5114660;28;1051;-63
2022/10/04 06:14:57;;;;;;;;;;;;;;;11.93;69.47;95624.00;5113638;28;1043;-62
2022/10/04 06:17:31;;;;;;;;;;;;;;;12.04;69.04;95634.47;5114643;28;1201;-63
2022/10/04 06:19:57;;;;;;;;;;;;;;;12.00;68.99;95625.06;5114938;28;1914;-63
2022/10/04 06:22:25;;;;;;;;;;;;;;;11.85;69.93;95633.63;5114461;28;1099;-63
2022/10/04 06:25:12;;;;;;;;;;;;;;;12.03;69.87;95632.81;5113151;28;1040;-63
2022/10/04 06:27:41;;;;;;;;;;;;;;;12.44;69.45;95639.19;5114354;28;1131;-63
2022/10/04 06:30:17;;;;;;;;;;;;;;;12.58;69.83;95632.41;5114652;28;1009;-62
2022/10/04 06:32:50;;;;;;;;;;;;;;;12.62;69.55;95635.59;5113135;28;1027;-63
2022/10/04 06:35:26;;;;;;;;;;;;;;;12.68;69.02;95641.16;5114225;28;1115;-62
2022/10/04 06:38:12;;;;;;;;;;;;;;;13.03;67.51;95633.03;5113280;28;1176;-64
2022/10/04 06:40:41;;;;;;;;;;;;;;;13.29;67.25;95632.91;5102585;28;1897;-62
2022/10/04 06:43:07;;;;;;;;;;;;;;;13.55;66.11;95635.47;5114218;28;1114;-63
2022/10/04 06:45:52;;;;;;;;;;;;;;;13.82;67.32;95639.66;5114068;28;1045;-62
2022/10/04 06:48:18;;;;;;;;;;;;;;;14.13;65.95;95643.50;5114076;28;1209;-62
2022/10/04 06:50:53;;;;;;;;;;;;;;;14.33;63.69;95641.28;5114103;28;984;-62
2022/10/04 06:53:34;;;;;;;;;;;;;;;14.40;62.02;95644.94;5114105;28;996;-62
2022/10/04 06:56:05;;;;;;;;;;;;;;;14.37;63.47;95646.13;5114018;28;965;-63
2022/10/04 06:58:34;;;;;;;;;;;;;;;14.44;62.60;95646.28;5113864;28;1992;-62
2022/10/04 07:01:19;;;;;;;;;;;;;;;14.49;63.14;95643.88;5114131;28;979;-64
2022/10/04 07:03:50;;;;;;;;;;;;;;;14.68;63.69;95650.75;5112717;28;1122;-63
2022/10/04 07:06:23;;;;;;;;;;;;;;;14.96;63.59;95645.75;5106806;28;1705;-63
2022/10/04 07:08:50;;;;;;;;;;;;;;;14.97;62.77;95652.00;5093362;28;1390;-63
2022/10/04 07:11:26;;;;;;;;;;;;;;;14.86;63.47;95655.91;5092437;28;1573;-63
2022/10/04 07:13:56;;;;;;;;;;;;;;;14.91;63.29;95649.97;5093379;28;1084;-63
2022/10/04 07:16:29;;;;;;;;;;;;;;;14.81;63.63;95655.59;5093550;28;1055;-63
2022/10/04 07:19:08;;;;;;;;;;;;;;;14.79;65.05;95658.44;5093159;28;1977;-63
2022/10/04 07:21:54;;;;;;;;;;;;;;;14.97;63.10;95663.59;5093555;28;1029;-63
2022/10/04 07:24:24;;;;;;;;;;;;;;;15.26;62.60;95659.38;5092373;28;1488;-63
2022/10/04 07:26:52;;;;;;;;;;;;;;;15.38;61.62;95667.91;5092175;28;953;-63
2022/10/04 07:29:21;;;;;;;;;;;;;;;15.35;63.19;95669.09;5093286;28;977;-63
2022/10/04 07:32:11;;;;;;;;;;;;;;;15.42;62.64;95672.78;5093176;28;945;-63
2022/10/04 07:34:44;;;;;;;;;;;;;;;15.57;62.29;95680.91;5088910;28;1267;-63
2022/10/04 07:37:11;;;;;;;;;;;;;;;15.45;61.85;95678.81;5093192;28;1080;-63
2022/10/04 07:39:42;;;;;;;;;;;;;;;15.70;60.41;95680.31;5093102;28;2009;-65
2022/10/04 07:42:20;;;;;;;;;;;;;;;15.98;58.67;95674.41;5093219;28;1091;-63
2022/10/04 07:44:55;;;;;;;;;;;;;;;16.17;58.54;95684.66;5092086;28;976;-62
2022/10/04 07:47:26;;;;;;;;;;;;;;;16.15;57.64;95684.00;5093360;28;1083;-62
2022/10/04 07:49:53;;;;;;;;;;;;;;;15.87;57.72;95681.06;5093043;28;1139;-63
2022/10/04 07:52:27;;;;;;;;;;;;;;;15.63;58.42;95679.34;5091860;28;1028;-62
2022/10/04 07:55:02;;;;;;;;;;;;;;;15.49;58.52;95683.66;5093015;28;1044;-62
2022/10/04 07:57:28;;;;;;;;;;;;;;;15.78;58.90;95677.59;5092057;28;1036;-62
2022/10/04 08:00:01;;;;;;;;;;;;;;;16.42;57.03;95670.94;5091655;28;1991;-62
2022/10/04 08:02:27;;;;;;;;;;;;;;;17.32;55.76;95674.44;5093080;28;1035;-64
2022/10/04 08:05:06;;;;;;;;;;;;;;;17.88;51.54;95673.81;5092836;28;1051;-64
2022/10/04 08:07:52;;;;;;;;;;;;;;;17.93;51.04;95669.50;5108899;28;1467;-65
2022/10/04 08:10:27;;;;;;;;;;;;;;;18.32;49.66;95675.41;5113405;28;1032;-64
2022/10/04 08:12:53;;;;;;;;;;;;;;;18.09;48.69;95681.06;5112081;28;985;-64
2022/10/04 08:15:19;;;;;;;;;;;;;;;17.46;50.14;95675.44;5113141;28;1119;-64
2022/10/04 08:17:49;;;;;;;;;;;;;;;18.28;48.35;95668.72;5113072;28;1044;-64
2022/10/04 08:20:34;;;;;;;;;;;;;;;19.03;47.69;95672.56;5115906;28;1914;-64
2022/10/04 08:23:00;;;;;;;;;;;;;;;19.64;44.80;95674.44;5116942;28;996;-64
2022/10/04 08:25:32;;;;;;;;;;;;;;;20.44;44.77;95671.84;5115702;28;1027;-64
2022/10/04 08:30:54;;;;;;;;;;;;;;;24.82;35.73;95692.97;5116849;28;961;-64
2022/10/04 08:33:47;;;;;;;;;;;;;;;23.60;37.21;95686.78;5116725;28;1040;-65
2022/10/04 08:36:31;;;;;;;;;;;;;;;20.76;40.99;95674.75;5115219;28;1089;-64
2022/10/04 08:39:02;;;;;;;;;;;;;;;19.18;44.18;95661.59;5116509;28;1983;-63
2022/10/04 08:41:47;;;;;;;;;;;;;;;18.28;44.00;95661.44;5116418;28;1044;-63
2022/10/04 08:44:19;;;;;;;;;;;;;;;17.53;47.81;95658.25;5116434;28;1036;-64
2022/10/04 08:47:04;;;;;;;;;;;;;;;17.09;49.44;95651.13;5116199;28;1047;-63
2022/10/04 08:50:02;;;;;;;;;;;;;;;16.87;49.80;95654.78;5116217;28;1045;-64
2022/10/04 08:52:49;;;;;;;;;;;;;;;16.66;48.68;95664.44;5103984;28;1161;-64
2022/10/04 08:55:25;;;;;;;;;;;;;;;16.61;48.50;95663.31;5116092;28;1029;-63
2022/10/04 08:58:09;;;;;;;;;;;;;;;16.70;48.53;95664.91;5116219;28;1016;-64
2022/10/04 09:00:35;;;;;;;;;;;;;;;16.65;48.04;95665.44;5115819;28;1914;-64
2022/10/04 09:03:03;;;;;;;;;;;;;;;16.55;49.14;95654.94;5115948;28;1280;-62
2022/10/04 09:05:35;;;;;;;;;;;;;;;16.54;48.94;95660.50;5115890;28;1037;-64
2022/10/04 09:08:07;;;;;;;;;;;;;;;16.45;50.60;95658.91;5095291;28;1319;-64
2022/10/04 09:11:09;;;;;;;;;;;;;;;16.40;49.89;95667.59;5095589;28;1016;-65
2022/10/04 09:13:53;;;;;;;;;;;;;;;16.44;48.47;95663.50;5076364;28;1330;-64
2022/10/04 09:16:37;;;;;;;;;;;;;;;16.39;49.42;95663.22;5095294;28;1094;-63
2022/10/04 09:19:17;;;;;;;;;;;;;;;16.44;49.04;95670.75;5095408;28;1906;-63
2022/10/04 09:21:46;;;;;;;;;;;;;;;16.40;49.03;95662.19;5095182;28;1093;-64
2022/10/04 09:24:31;;;;;;;;;;;;;;;16.45;48.79;95661.63;5095210;28;945;-66
2022/10/04 09:27:12;;;;;;;;;;;;;;;16.49;48.48;95663.78;5095305;28;1034;-63
2022/10/04 09:29:44;;;;;;;;;;;;;;;16.59;48.73;95663.50;5094844;28;985;-63
2022/10/04 09:32:10;;;;;;;;;;;;;;;16.58;49.15;95662.66;5095144;28;993;-64
2022/10/04 09:35:02;;;;;;;;;;;;;;;16.54;51.03;95663.22;5094864;28;1061;-63
2022/10/04 09:37:46;;;;;;;;;;;;;;;16.46;49.18;95664.13;5093807;28;1141;-63
2022/10/04 09:40:33;;;;;;;;;;;;;;;16.39;50.68;95666.75;5094940;28;1994;-64
2022/10/04 09:43:16;;;;;;;;;;;;;;;16.35;49.86;95668.16;5094818;28;1103;-64
2022/10/04 09:45:42;;;;;;;;;;;;;;;16.36;50.17;95666.28;5094939;28;1023;-64
2022/10/04 09:48:24;;;;;;;;;;;;;;;16.46;51.03;95671.41;5094957;28;1048;-63
2022/10/04 09:51:07;;;;;;;;;;;;;;;16.58;50.20;95665.38;5094731;28;1059;-63
2022/10/04 09:53:45;;;;;;;;;;;;;;;16.66;51.39;95661.75;5094645;28;1061;-64
2022/10/04 09:56:25;;;;;;;;;;;;;;;16.79;50.22;95664.63;5094889;28;1059;-64
2022/10/04 09:59:07;;;;;;;;;;;;;;;16.92;49.32;95661.28;5094333;28;1910;-63
2022/10/04 10:01:49;;;;;;;;;;;;;;;16.89;47.69;95667.06;5094582;28;1015;-64
2022/10/04 10:04:18;;;;;;;;;;;;;;;16.78;47.85;95668.34;5094339;28;1088;-63
2022/10/04 10:06:53;;;;;;;;;;;;;;;16.70;49.22;95663.03;5104003;28;1268;-63
2022/10/04 10:15:37;;;;;;;;;;;;;;;16.72;49.51;95652.06;5114865;28;1030;-64
2022/10/04 10:18:22;;;;;;;;;;;;;;;16.79;49.59;95650.28;5114496;28;1033;-64
2022/10/04 10:20:51;;;;;;;;;;;;;;;16.86;50.00;95653.91;5114383;28;1950;-64
2022/10/04 10:23:32;;;;;;;;;;;;;;;16.93;48.74;95652.16;5114332;28;1041;-63
2022/10/04 10:26:28;;;;;;;;;;;;;;;16.97;46.58;95655.31;5114678;28;1031;-64
2022/10/04 10:28:57;;;;;;;;;;;;;;;16.94;47.48;95658.38;5109275;28;1319;-64
2022/10/04 10:31:46;;;;;;;;;;;;;;;16.87;48.13;95652.91;5114211;28;961;-63
2022/10/04 10:34:15;;;;;;;;;;;;;;;16.90;48.62;95652.53;5111061;28;1420;-63
2022/10/04 10:36:54;;;;;;;;;;;;;;;16.89;49.30;95663.53;5114235;28;1067;-63
2022/10/04 10:39:20;;;;;;;;;;;;;;;16.91;48.72;95658.78;5114071;28;1917;-63
2022/10/04 10:41:46;;;;;;;;;;;;;;;16.94;47.98;95647.56;5113371;28;1101;-63
2022/10/04 10:44:28;;;;;;;;;;;;;;;16.96;49.47;95640.97;5112842;28;984;-64
2022/10/04 10:46:57;;;;;;;;;;;;;;;17.11;48.18;95656.31;5114302;28;945;-64
2022/10/04 10:49:32;;;;;;;;;;;;;;;17.37;48.59;95655.78;5114082;28;973;-63
2022/10/04 10:52:21;;;;;;;;;;;;;;;17.65;47.34;95657.75;5113932;28;1041;-63
2022/10/04 10:55:02;;;;;;;;;;;;;;;17.70;47.49;95652.56;5112585;28;1104;-64
2022/10/04 10:57:34;;;;;;;;;;;;;;;17.70;47.92;95648.03;5114089;28;1012;-64
2022/10/04 11:00:16;;;;;;;;;;;;;;;17.65;46.98;95642.34;5113823;28;1988;-64
2022/10/04 11:06:37;;;;;;;;;;;;;;;17.51;46.95;95654.91;5111366;28;1252;-64
2022/10/04 11:09:06;;;;;;;;;;;;;;;17.44;45.05;95650.47;5111176;28;1244;-63
2022/10/04 11:11:51;;;;;;;;;;;;;;;17.34;46.31;95664.28;5111419;28;921;-64
2022/10/04 11:14:33;;;;;;;;;;;;;;;17.25;46.43;95660.03;5094677;28;1097;-64
2022/10/04 11:17:26;;;;;;;;;;;;;;;17.17;47.73;95652.88;5111379;28;952;-64
2022/10/04 11:19:55;;;;;;;;;;;;;;;17.17;48.47;95658.28;5111222;28;1913;-63
2022/10/04 11:22:29;;;;;;;;;;;;;;;17.19;48.19;95669.72;5111371;28;1094;-64
2022/10/04 11:25:07;;;;;;;;;;;;;;;17.24;47.75;95664.56;5111229;28;1043;-64
2022/10/04 11:27:51;;;;;;;;;;;;;;;17.30;48.68;95655.72;5111379;28;945;-64
2022/10/04 11:30:25;;;;;;;;;;;;;;;17.37;47.79;95662.00;5111253;28;1145;-63
2022/10/04 11:32:54;;;;;;;;;;;;;;;17.29;45.65;95661.31;5094312;28;992;-63
2022/10/04 11:35:35;;;;;;;;;;;;;;;17.27;46.74;95647.16;5111218;28;1048;-63
2022/10/04 11:38:10;;;;;;;;;;;;;;;17.17;46.56;95650.16;5113555;28;1052;-63
2022/10/04 11:40:42;;;;;;;;;;;;;;;17.05;47.98;95652.50;5113259;28;1965;-63
2022/10/04 11:43:10;;;;;;;;;;;;;;;17.04;46.94;95650.84;5113570;28;1039;-63
2022/10/04 11:45:54;;;;;;;;;;;;;;;17.02;46.42;95655.59;5113443;28;1024;-63
2022/10/04 11:48:20;;;;;;;;;;;;;;;16.97;47.14;95658.84;5113435;28;1020;-62
2022/10/04 11:50:46;;;;;;;;;;;;;;;16.96;46.78;95659.06;5113242;28;965;-63
2022/10/04 11:53:16;;;;;;;;;;;;;;;17.06;46.79;95656.06;5115808;28;1029;-62
2022/10/04 11:56:06;;;;;;;;;;;;;;;17.12;47.43;95658.81;5116210;28;1040;-63
2022/10/04 11:58:52;;;;;;;;;;;;;;;17.17;46.07;95663.69;5117284;28;838;-62
2022/10/04 12:01:31;;;;;;;;;;;;;;;17.09;45.87;95666.47;5117027;28;1097;-63
2022/10/04 12:03:57;;;;;;;;;;;;;;;17.00;46.88;95656.78;5117036;28;1017;-62
2022/10/04 12:06:41;;;;;;;;;;;;;;;17.00;47.00;95654.94;5117228;27;1263;-64
2022/10/04 12:09:46;;;;;;;;;;;;;;;17.08;47.31;95654.00;5116971;28;1241;-64
2022/10/04 12:12:36;;;;;;;;;;;;;;;17.05;47.13;95651.66;5077544;28;1396;-63
2022/10/04 12:15:09;;;;;;;;;;;;;;;17.14;45.78;95664.03;5094374;28;997;-63
2022/10/04 12:17:58;;;;;;;;;;;;;;;17.25;45.70;95665.44;5102422;28;1169;-63
2022/10/04 12:20:43;;;;;;;;;;;;;;;17.35;46.45;95661.38;5113678;28;2243;-62
2022/10/04 12:23:10;;;;;;;;;;;;;;;17.34;45.22;95665.13;5116903;28;960;-64
2022/10/04 12:25:52;;;;;;;;;;;;;;;17.36;45.71;95664.94;5115617;28;997;-63
2022/10/04 12:28:57;;;;;;;;;;;;;;;17.42;45.58;95666.88;5116726;28;1054;-62
2022/10/04 12:31:34;;;;;;;;;;;;;;;17.48;45.61;95657.16;5094029;28;1148;-63
2022/10/04 12:34:20;;;;;;;;;;;;;;;17.49;46.05;95654.25;5077199;28;996;-63
2022/10/04 12:37:05;;;;;;;;;;;;;;;17.50;46.58;95655.94;5109120;28;1053;-64
2022/10/04 12:39:46;;;;;;;;;;;;;;;17.46;45.35;95646.53;5116584;28;1918;-64
2022/10/04 12:42:15;;;;;;;;;;;;;;;17.39;45.29;95655.59;5116598;28;1187;-63
2022/10/04 12:45:02;;;;;;;;;;;;;;;17.34;46.93;95654.31;5115215;28;999;-64
2022/10/04 12:47:28;;;;;;;;;;;;;;;17.29;47.29;95655.91;5116165;28;1118;-64
2022/10/04 12:50:00;;;;;;;;;;;;;;;17.25;47.95;95654.63;5116389;28;960;-63
2022/10/04 12:52:32;;;;;;;;;;;;;;;17.23;48.21;95654.81;5116398;28;1048;-63
2022/10/04 12:55:09;;;;;;;;;;;;;;;17.24;47.21;95663.75;5114855;28;1041;-62
2022/10/04 12:57:54;;;;;;;;;;;;;;;17.27;44.49;95660.66;5116176;28;1028;-63
2022/10/04 13:00:21;;;;;;;;;;;;;;;17.25;45.31;95655.44;5116151;28;1918;-62
2022/10/04 13:03:07;;;;;;;;;;;;;;;17.29;46.32;95656.75;5115946;28;1045;-63
2022/10/04 13:05:45;;;;;;;;;;;;;;;17.32;47.49;95656.38;5115358;28;1043;-62
2022/10/04 13:08:29;;;;;;;;;;;;;;;17.32;48.21;95655.50;5095266;28;1245;-64
2022/10/04 13:10:55;;;;;;;;;;;;;;;17.35;47.80;95661.38;5095538;28;1026;-64
2022/10/04 13:13:24;;;;;;;;;;;;;;;17.36;49.24;95651.41;5094389;28;1024;-62
2022/10/04 13:15:57;;;;;;;;;;;;;;;17.38;46.78;95660.16;5095352;28;979;-64
2022/10/04 13:18:41;;;;;;;;;;;;;;;17.41;46.87;95654.38;5095406;28;1132;-64
2022/10/04 13:21:15;;;;;;;;;;;;;;;17.41;47.21;95651.66;5095225;28;1921;-62
2022/10/04 13:24:00;;;;;;;;;;;;;;;17.36;46.03;95646.84;5094224;28;1040;-63
2022/10/04 13:26:45;;;;;;;;;;;;;;;17.29;46.00;95645.09;5095201;28;1092;-62
2022/10/04 13:29:14;;;;;;;;;;;;;;;17.26;45.79;95654.41;5095004;28;1061;-62
2022/10/04 13:31:43;;;;;;;;;;;;;;;17.27;46.47;95657.97;5094969;28;1068;-62
2022/10/04 13:34:28;;;;;;;;;;;;;;;17.28;47.83;95654.22;5095024;28;1056;-62
2022/10/04 13:36:54;;;;;;;;;;;;;;;17.25;47.02;95660.84;5094937;28;1016;-62
2022/10/04 13:39:23;;;;;;;;;;;;;;;17.25;47.33;95671.66;5093652;28;1906;-62
2022/10/04 13:42:08;;;;;;;;;;;;;;;17.18;51.27;95670.75;5094988;28;973;-61
2022/10/04 13:44:49;;;;;;;;;;;;;;;17.10;48.80;95673.56;5095013;28;1076;-63
2022/10/04 13:47:24;;;;;;;;;;;;;;;17.02;49.09;95681.78;5094778;28;1100;-63
2022/10/04 13:49:50;;;;;;;;;;;;;;;16.96;50.17;95677.97;5094660;28;968;-61